Time;durP1;ratioP1;P1;durP2;ratioP2;P2;SDS_P1;SDS_P2;PMS_P1;PMS_P2;Temp;Humidity;BMP_temperature;BMP_pressure;BME280_temperature;BME280_humidity;BME280_pressure;Samples;Min_cycle;Max_cycle;Signal;HPM_P1;HPM_P2
2022/08/23 00:01:27;;;;;;;3.88;2.35;;;24.40;40.10;;;;;;5017248;28;20053;-51
2022/08/23 00:03:56;;;;;;;4.07;2.47;;;24.40;40.20;;;;;;5024608;28;20065;-52
2022/08/23 00:06:24;;;;;;;9.98;2.80;;;24.30;40.10;;;;;;5023694;28;20509;-47
2022/08/23 00:08:54;;;;;;;3.83;2.28;;;24.30;40.10;;;;;;5022688;28;20057;-51
2022/08/23 00:11:27;;;;;;;6.10;2.35;;;24.30;40.20;;;;;;5017734;28;20061;-53
2022/08/23 00:13:58;;;;;;;2.80;2.17;;;24.20;40.20;;;;;;5021927;28;20078;-50
2022/08/23 00:16:25;;;;;;;3.75;2.33;;;24.20;40.40;;;;;;5022971;28;20050;-55
2022/08/23 00:18:52;;;;;;;5.30;2.30;;;24.20;40.60;;;;;;5022978;28;20057;-54
2022/08/23 00:21:20;;;;;;;3.40;2.40;;;24.10;40.70;;;;;;5019193;28;20064;-56
2022/08/23 00:23:47;;;;;;;3.25;2.00;;;24.10;40.80;;;;;;5021540;28;20064;-50
2022/08/23 00:26:14;;;;;;;5.65;2.30;;;24.10;41.20;;;;;;5021149;28;20057;-53
2022/08/23 00:28:41;;;;;;;4.60;2.30;;;24.10;40.80;;;;;;5023376;28;20068;-52
2022/08/23 00:31:10;;;;;;;3.47;2.15;;;24.00;40.90;;;;;;5012143;28;20050;-48
2022/08/23 00:33:37;;;;;;;4.32;2.22;;;24.00;41.00;;;;;;5018646;28;20060;-48
2022/08/23 00:36:04;;;;;;;4.90;2.78;;;23.90;41.00;;;;;;5021247;28;20064;-50
2022/08/23 00:38:31;;;;;;;3.83;2.40;;;23.90;41.00;;;;;;5022610;28;20068;-51
2022/08/23 00:40:59;;;;;;;6.22;2.40;;;23.90;41.10;;;;;;5016922;28;20058;-50
2022/08/23 00:49:14;;;;;;;7.07;2.60;;;23.70;41.20;;;;;;5026212;28;20060;-48
2022/08/23 00:51:47;;;;;;;3.00;2.40;;;23.60;41.20;;;;;;5014778;28;20072;-50
2022/08/23 00:54:16;;;;;;;3.75;2.35;;;23.60;41.40;;;;;;5023204;28;20065;-51
2022/08/23 00:56:44;;;;;;;3.65;2.20;;;23.50;41.50;;;;;;5022770;28;20064;-49
2022/08/23 00:59:12;;;;;;;3.38;2.45;;;23.50;41.70;;;;;;5021850;28;20053;-51
2022/08/23 01:01:42;;;;;;;3.60;2.28;;;23.40;41.80;;;;;;5018319;28;20061;-49
2022/08/23 01:04:12;;;;;;;4.90;2.47;;;23.40;41.90;;;;;;5018958;28;20057;-51
2022/08/23 01:06:44;;;;;;;5.22;2.63;;;23.40;42.00;;;;;;5023807;28;20053;-51
2022/08/23 01:09:16;;;;;;;4.80;2.70;;;23.30;41.90;;;;;;5019880;28;20057;-52
2022/08/23 01:11:51;;;;;;;4.82;2.67;;;23.30;41.90;;;;;;5016023;28;20064;-54
2022/08/23 01:14:23;;;;;;;7.05;2.50;;;23.20;42.10;;;;;;5020726;28;20064;-48
2022/08/23 01:16:56;;;;;;;5.22;2.35;;;23.20;42.10;;;;;;5017985;28;20058;-50
2022/08/23 01:19:27;;;;;;;3.83;2.60;;;23.10;42.20;;;;;;5018181;28;20053;-52
2022/08/23 01:22:00;;;;;;;5.90;2.58;;;23.10;42.30;;;;;;5007793;28;20054;-49
2022/08/23 01:24:29;;;;;;;5.03;2.80;;;23.10;42.50;;;;;;5010563;28;20056;-50
2022/08/23 01:26:57;;;;;;;3.70;2.30;;;23.00;42.50;;;;;;5021949;28;20417;-49
2022/08/23 01:29:24;;;;;;;7.70;2.40;;;23.00;42.50;;;;;;5022437;28;20049;-51
2022/08/23 01:31:52;;;;;;;4.70;2.42;;;22.90;42.60;;;;;;5014992;28;20057;-53
2022/08/23 01:34:24;;;;;;;3.40;2.60;;;22.90;42.60;;;;;;5019693;28;20080;-49
2022/08/23 01:36:51;;;;;;;4.75;2.40;;;22.90;42.60;;;;;;5010710;28;20045;-50
2022/08/23 01:39:19;;;;;;;7.30;2.55;;;22.80;42.70;;;;;;5010689;28;20041;-53
2022/08/23 01:41:47;;;;;;;4.40;2.38;;;22.80;42.80;;;;;;5018032;28;20405;-50
2022/08/23 01:44:15;;;;;;;6.30;2.90;;;22.80;42.90;;;;;;5020895;28;20068;-49
2022/08/23 01:46:44;;;;;;;5.57;2.70;;;22.80;42.90;;;;;;5012248;28;20513;-51
2022/08/23 01:49:12;;;;;;;5.00;2.50;;;22.70;43.10;;;;;;5018987;28;20132;-52
2022/08/23 01:51:40;;;;;;;6.15;2.60;;;22.70;43.10;;;;;;5017486;28;20049;-54
2022/08/23 01:54:07;;;;;;;4.13;2.28;;;22.70;43.10;;;;;;5019351;28;20046;-51
2022/08/23 01:56:35;;;;;;;4.68;2.80;;;22.70;43.10;;;;;;5018449;28;20045;-50
2022/08/23 01:59:04;;;;;;;3.45;2.30;;;22.60;43.10;;;;;;5019789;28;20049;-48
2022/08/23 02:01:32;;;;;;;5.90;3.40;;;22.60;43.20;;;;;;5015923;28;20053;-50
2022/08/23 02:04:00;;;;;;;7.50;2.65;;;22.60;43.20;;;;;;5021873;28;20049;-51
2022/08/23 02:06:27;;;;;;;7.65;2.83;;;22.50;43.10;;;;;;5021171;28;20420;-53
2022/08/23 02:09:01;;;;;;;3.40;2.38;;;22.50;43.20;;;;;;5022150;28;20049;-48
2022/08/23 02:11:29;;;;;;;3.88;2.50;;;22.50;43.30;;;;;;5016955;28;20053;-48
2022/08/23 02:13:59;;;;;;;7.22;2.78;;;22.40;43.20;;;;;;5019055;28;20497;-51
2022/08/23 02:16:30;;;;;;;6.30;2.90;;;22.40;43.30;;;;;;5014576;28;20050;-50
2022/08/23 02:18:58;;;;;;;3.97;2.45;;;22.30;43.30;;;;;;5020905;28;20413;-52
2022/08/23 02:21:25;;;;;;;5.22;2.47;;;22.30;43.40;;;;;;5018260;28;20065;-49
2022/08/23 02:23:53;;;;;;;7.03;2.88;;;22.30;43.50;;;;;;5023007;28;20068;-53
2022/08/23 02:26:20;;;;;;;4.55;2.85;;;22.30;43.50;;;;;;5007939;28;20719;-50
2022/08/23 02:28:50;;;;;;;5.97;2.70;;;22.30;43.60;;;;;;5014999;28;20565;-50
2022/08/23 02:31:18;;;;;;;4.95;2.35;;;22.30;43.80;;;;;;5016130;28;20057;-49
2022/08/23 02:33:47;;;;;;;8.52;2.33;;;22.20;43.70;;;;;;5021435;28;20057;-53
2022/08/23 02:36:16;;;;;;;4.90;2.28;;;22.20;43.80;;;;;;5016384;28;20057;-50
2022/08/23 02:38:43;;;;;;;4.38;2.53;;;22.20;43.60;;;;;;5020152;28;20057;-51
2022/08/23 02:41:10;;;;;;;3.70;2.38;;;22.20;43.50;;;;;;5012816;28;20050;-49
2022/08/23 02:43:38;;;;;;;3.95;2.42;;;22.20;43.60;;;;;;5011426;28;20046;-48
2022/08/23 02:46:06;;;;;;;8.63;2.95;;;22.10;43.40;;;;;;5012651;28;20061;-52
2022/08/23 02:48:33;;;;;;;4.05;2.50;;;22.10;43.40;;;;;;5020418;28;20053;-51
2022/08/23 02:51:04;;;;;;;4.70;2.67;;;22.10;43.40;;;;;;5011700;28;20422;-49
2022/08/23 02:53:32;;;;;;;7.90;2.83;;;22.10;43.40;;;;;;5018149;28;20056;-48
2022/08/23 02:55:59;;;;;;;4.90;2.30;;;22.10;43.40;;;;;;5014674;28;20439;-50
2022/08/23 02:58:27;;;;;;;7.35;2.88;;;22.10;43.30;;;;;;5020677;28;20049;-51
2022/08/23 03:00:54;;;;;;;4.15;2.30;;;22.00;43.30;;;;;;5007212;28;20054;-52
2022/08/23 03:03:22;;;;;;;7.85;2.55;;;22.00;43.20;;;;;;5014840;28;20057;-50
2022/08/23 03:05:50;;;;;;;6.43;2.65;;;22.00;43.30;;;;;;5014925;28;20068;-48
2022/08/23 03:08:19;;;;;;;4.25;2.40;;;22.00;43.30;;;;;;5021261;28;20053;-51
2022/08/23 03:10:48;;;;;;;7.45;2.53;;;21.90;43.20;;;;;;5012374;28;20060;-50
2022/08/23 03:13:16;;;;;;;4.85;2.90;;;22.00;43.30;;;;;;5013361;28;20407;-53
2022/08/23 03:15:43;;;;;;;5.28;2.63;;;21.90;43.20;;;;;;5017624;28;20553;-49
2022/08/23 03:18:11;;;;;;;3.53;2.15;;;21.90;43.40;;;;;;5019918;28;20057;-51
2022/08/23 03:20:40;;;;;;;3.05;2.17;;;21.90;43.40;;;;;;5014196;28;20056;-50
2022/08/23 03:23:07;;;;;;;3.80;2.45;;;21.90;43.60;;;;;;5015379;28;20050;-51
2022/08/23 03:25:36;;;;;;;4.63;2.35;;;21.90;43.70;;;;;;5021514;28;20050;-51
2022/08/23 03:28:05;;;;;;;5.20;2.38;;;21.90;43.70;;;;;;5020129;28;20061;-51
2022/08/23 03:30:33;;;;;;;4.25;2.10;;;21.90;43.80;;;;;;5010667;28;20064;-52
2022/08/23 03:33:00;;;;;;;6.32;2.92;;;21.80;43.80;;;;;;5013123;28;20061;-51
2022/08/23 03:35:27;;;;;;;4.85;2.53;;;21.80;43.80;;;;;;5009783;28;20497;-48
2022/08/23 03:37:55;;;;;;;3.58;2.38;;;21.80;43.80;;;;;;5020726;28;20065;-53
2022/08/23 03:40:23;;;;;;;3.72;2.10;;;21.80;44.30;;;;;;5010302;28;20054;-52
2022/08/23 03:42:52;;;;;;;3.50;2.45;;;21.80;43.80;;;;;;5016998;28;20061;-51
2022/08/23 03:45:20;;;;;;;6.82;3.38;;;21.80;43.90;;;;;;5014690;28;20057;-56
2022/08/23 03:47:48;;;;;;;4.47;2.53;;;21.80;43.90;;;;;;5019365;28;20080;-50
2022/08/23 03:50:15;;;;;;;6.10;3.08;;;21.70;43.70;;;;;;5012438;28;20057;-51
2022/08/23 03:52:42;;;;;;;3.97;2.50;;;21.70;43.70;;;;;;5016396;28;20060;-48
2022/08/23 03:55:09;;;;;;;4.65;2.72;;;21.70;43.70;;;;;;5015269;28;20061;-50
2022/08/23 03:57:37;;;;;;;4.05;2.25;;;21.60;43.80;;;;;;5019642;28;20057;-54
2022/08/23 04:00:08;;;;;;;6.93;2.85;;;21.60;43.70;;;;;;5004284;28;20049;-48
2022/08/23 04:02:36;;;;;;;5.18;2.15;;;21.60;43.60;;;;;;5004641;28;20065;-51
2022/08/23 04:05:03;;;;;;;7.07;2.15;;;21.60;43.70;;;;;;5017415;28;20057;-51
2022/08/23 04:07:30;;;;;;;3.50;2.13;;;21.50;43.70;;;;;;5018391;28;20049;-49
2022/08/23 04:09:58;;;;;;;5.28;2.10;;;21.50;43.70;;;;;;5018401;28;20045;-48
2022/08/23 04:12:25;;;;;;;2.65;1.50;;;21.50;43.70;;;;;;5019356;28;20049;-49
2022/08/23 04:14:52;;;;;;;3.40;1.75;;;21.50;43.70;;;;;;5008627;28;20060;-55
2022/08/23 04:17:23;;;;;;;8.30;3.70;;;21.50;43.80;;;;;;5009046;28;20049;-51
2022/08/23 04:19:50;;;;;;;6.18;3.53;;;21.50;43.80;;;;;;5017947;28;20049;-53
2022/08/23 04:22:18;;;;;;;5.80;3.25;;;21.40;43.70;;;;;;5020836;28;20046;-51
2022/08/23 04:24:47;;;;;;;4.43;2.70;;;21.40;43.60;;;;;;5019477;28;20057;-49
2022/08/23 04:27:14;;;;;;;3.67;2.03;;;21.40;43.50;;;;;;5017343;28;21941;-49
2022/08/23 04:29:41;;;;;;;3.95;2.30;;;21.40;43.50;;;;;;5010659;28;20050;-51
2022/08/23 04:32:10;;;;;;;4.32;1.80;;;21.40;43.40;;;;;;5013155;28;20069;-47
2022/08/23 04:34:41;;;;;;;4.20;2.10;;;21.30;43.40;;;;;;5017908;28;20057;-53
2022/08/23 04:37:09;;;;;;;4.95;2.30;;;21.30;43.40;;;;;;5024871;28;20061;-51
2022/08/23 04:42:16;;;;;;;4.10;2.30;;;21.30;43.50;;;;;;5022467;28;20053;-50
2022/08/23 04:42:24;;;;;;;3.70;1.73;;;21.30;43.70;;;;;;5021838;28;20544;-51
2022/08/23 04:44:52;;;;;;;5.82;1.98;;;21.40;43.90;;;;;;5012623;28;20411;-52
2022/08/23 04:47:20;;;;;;;5.90;3.15;;;21.40;44.00;;;;;;5015195;28;20061;-52
2022/08/23 04:49:48;;;;;;;10.68;3.10;;;21.50;44.10;;;;;;5014036;28;20529;-51
2022/08/23 04:52:15;;;;;;;4.65;2.58;;;21.50;44.10;;;;;;5021387;28;20061;-49
2022/08/23 04:54:43;;;;;;;6.43;2.25;;;21.50;44.30;;;;;;5022284;28;20628;-50
2022/08/23 04:57:10;;;;;;;3.53;2.28;;;21.60;44.30;;;;;;5023568;28;20596;-50
2022/08/23 04:59:37;;;;;;;7.00;2.85;;;21.60;44.40;;;;;;5018452;28;20642;-51
2022/08/23 05:02:04;;;;;;;3.97;1.92;;;21.70;44.60;;;;;;5018974;28;20061;-50
2022/08/23 05:04:32;;;;;;;5.88;2.25;;;21.80;44.60;;;;;;5014411;28;20049;-52
2022/08/23 05:07:01;;;;;;;3.28;1.90;;;21.80;44.50;;;;;;5016798;28;20069;-47
2022/08/23 05:09:28;;;;;;;4.88;2.20;;;21.90;44.50;;;;;;5022134;28;20041;-52
2022/08/23 05:11:55;;;;;;;4.35;2.10;;;21.90;44.30;;;;;;5005275;28;20060;-52
2022/08/23 05:14:23;;;;;;;3.30;2.13;;;22.00;44.40;;;;;;5020193;28;20053;-55
2022/08/23 05:16:50;;;;;;;4.45;2.28;;;22.00;44.50;;;;;;5022975;28;20058;-50
2022/08/23 05:19:17;;;;;;;7.55;2.42;;;22.00;44.50;;;;;;5020807;28;20485;-52
2022/08/23 05:21:45;;;;;;;3.80;1.90;;;22.00;44.60;;;;;;5016404;28;20104;-50
2022/08/23 05:24:13;;;;;;;6.43;2.28;;;22.00;44.50;;;;;;5024134;28;20394;-51
2022/08/23 05:26:41;;;;;;;4.30;2.05;;;22.10;44.60;;;;;;5021754;28;20053;-51
2022/08/23 05:29:08;;;;;;;10.35;3.33;;;22.00;44.60;;;;;;5016775;28;20041;-48
2022/08/23 05:31:35;;;;;;;8.80;3.55;;;22.00;44.70;;;;;;5011458;28;20418;-50
2022/08/23 05:34:03;;;;;;;4.53;2.70;;;22.00;44.80;;;;;;5016240;28;20053;-50
2022/08/23 05:36:31;;;;;;;5.40;2.15;;;22.00;45.00;;;;;;5008538;28;20422;-50
2022/08/23 05:38:58;;;;;;;4.25;2.65;;;22.10;45.10;;;;;;5013490;28;20060;-50
2022/08/23 05:41:27;;;;;;;5.50;2.20;;;22.10;45.30;;;;;;5007674;28;20509;-52
2022/08/23 05:43:54;;;;;;;2.75;1.85;;;22.10;45.50;;;;;;5014650;28;20413;-52
2022/08/23 05:46:22;;;;;;;3.50;2.30;;;22.10;45.50;;;;;;5019410;28;20517;-49
2022/08/23 05:48:51;;;;;;;3.40;2.13;;;22.00;45.60;;;;;;5018462;28;20049;-55
2022/08/23 05:51:21;;;;;;;4.07;2.05;;;22.00;45.70;;;;;;5008721;28;20057;-52
2022/08/23 05:53:50;;;;;;;4.53;2.30;;;22.00;45.80;;;;;;5016805;28;20520;-49
2022/08/23 05:56:19;;;;;;;4.80;2.28;;;22.10;45.80;;;;;;5018484;28;20068;-54
2022/08/23 05:58:48;;;;;;;4.57;2.60;;;22.00;45.70;;;;;;5017096;28;20070;-49
2022/08/23 06:01:17;;;;;;;5.20;2.10;;;22.10;45.90;;;;;;5008466;28;20041;-47
2022/08/23 06:03:44;;;;;;;3.95;2.40;;;22.10;46.10;;;;;;5019517;28;20076;-51
2022/08/23 06:06:14;;;;;;;6.07;2.00;;;22.10;46.30;;;;;;5015902;28;20045;-54
2022/08/23 06:08:45;;;;;;;4.55;2.17;;;22.10;46.20;;;;;;5011371;28;20405;-53
2022/08/23 06:11:16;;;;;;;4.90;2.20;;;22.10;46.30;;;;;;5014948;28;20046;-55
2022/08/23 06:13:45;;;;;;;2.85;2.00;;;22.20;46.10;;;;;;5019450;28;20061;-50
2022/08/23 06:16:16;;;;;;;3.25;1.95;;;22.20;46.10;;;;;;5019360;28;20061;-53
2022/08/23 06:18:43;;;;;;;3.75;1.90;;;22.20;46.10;;;;;;5018934;28;20057;-53
2022/08/23 06:21:13;;;;;;;3.35;1.98;;;22.20;46.10;;;;;;5015204;28;20045;-53
2022/08/23 06:23:40;;;;;;;3.72;1.95;;;22.20;46.20;;;;;;5018181;28;20049;-52
2022/08/23 06:26:10;;;;;;;4.57;1.88;;;22.30;46.20;;;;;;5019699;28;20061;-52
2022/08/23 06:28:38;;;;;;;6.05;2.30;;;22.30;46.20;;;;;;5016144;28;20049;-49
2022/08/23 06:31:05;;;;;;;4.28;2.25;;;22.30;46.30;;;;;;5001411;28;20486;-49
2022/08/23 06:33:35;;;;;;;13.23;2.20;;;22.30;46.10;;;;;;5013022;28;20057;-49
2022/08/23 06:36:05;;;;;;;2.85;1.80;;;22.40;46.20;;;;;;5020091;28;20060;-52
2022/08/23 06:38:33;;;;;;;3.60;1.70;;;22.40;45.90;;;;;;5019507;28;20049;-50
2022/08/23 06:41:01;;;;;;;3.42;1.90;;;22.50;46.00;;;;;;5000320;28;20130;-50
2022/08/23 06:43:29;;;;;;;4.97;2.05;;;22.50;46.00;;;;;;5005307;28;20058;-53
2022/08/23 06:46:05;;;;;;;3.35;2.00;;;22.50;45.80;;;;;;5015769;28;20068;-53
2022/08/23 06:48:34;;;;;;;3.08;1.90;;;22.50;45.60;;;;;;5020171;28;20053;-52
2022/08/23 06:51:02;;;;;;;4.45;2.05;;;22.60;45.60;;;;;;5017231;28;20057;-50
2022/08/23 06:53:29;;;;;;;6.70;1.80;;;22.60;45.60;;;;;;5008515;28;20053;-51
2022/08/23 06:55:56;;;;;;;3.30;1.65;;;22.70;45.50;;;;;;5014196;28;20072;-50
2022/08/23 06:58:23;;;;;;;7.68;2.33;;;22.70;45.30;;;;;;5013735;28;20060;-53
2022/08/23 07:00:50;;;;;;;4.05;1.50;;;22.80;45.40;;;;;;5013497;28;20072;-50
2022/08/23 07:03:18;;;;;;;3.70;2.00;;;22.80;45.20;;;;;;5020439;28;20065;-49
2022/08/23 07:05:46;;;;;;;3.20;1.73;;;22.80;45.20;;;;;;5006449;28;20057;-50
2022/08/23 07:08:13;;;;;;;2.42;1.58;;;22.90;45.20;;;;;;5009349;28;20065;-47
2022/08/23 07:10:42;;;;;;;4.97;1.73;;;22.90;44.70;;;;;;5007811;28;20049;-53
2022/08/23 07:13:09;;;;;;;4.60;2.03;;;23.00;44.80;;;;;;5015013;28;20054;-48
2022/08/23 07:15:37;;;;;;;3.47;1.88;;;23.00;44.90;;;;;;5017815;28;20050;-52
2022/08/23 07:18:04;;;;;;;8.95;1.88;;;23.10;44.50;;;;;;5017769;28;20061;-48
2022/08/23 07:20:31;;;;;;;7.70;2.45;;;23.10;44.20;;;;;;5014747;28;20049;-53
2022/08/23 07:23:01;;;;;;;3.58;1.80;;;23.10;44.00;;;;;;5013160;28;20057;-53
2022/08/23 07:25:28;;;;;;;3.38;1.63;;;23.20;44.00;;;;;;5017695;28;20257;-53
2022/08/23 07:27:55;;;;;;;4.90;1.63;;;23.30;43.80;;;;;;5018058;28;20061;-52
2022/08/23 07:30:22;;;;;;;5.95;1.80;;;23.30;43.90;;;;;;5005611;28;20049;-50
2022/08/23 07:32:50;;;;;;;6.90;2.53;;;23.40;43.70;;;;;;5008781;28;20073;-49
2022/08/23 07:35:17;;;;;;;3.67;1.70;;;23.50;43.30;;;;;;5011808;28;20061;-53
2022/08/23 07:37:44;;;;;;;7.07;2.05;;;23.50;43.50;;;;;;5014003;28;20060;-54
2022/08/23 07:40:13;;;;;;;10.55;5.10;;;23.60;43.20;;;;;;5010659;28;20046;-50
2022/08/23 07:42:40;;;;;;;6.20;2.80;;;23.70;43.10;;;;;;5015333;28;20060;-54
2022/08/23 07:45:09;;;;;;;4.10;2.10;;;23.70;43.20;;;;;;5020835;28;20057;-53
2022/08/23 07:47:36;;;;;;;3.67;1.83;;;23.80;43.00;;;;;;5021061;28;20053;-52
2022/08/23 07:50:03;;;;;;;5.40;2.10;;;23.80;42.70;;;;;;5020435;28;20049;-52
2022/08/23 07:52:30;;;;;;;4.22;2.20;;;23.90;42.80;;;;;;5010605;28;20049;-52
2022/08/23 07:54:58;;;;;;;4.75;1.98;;;24.00;42.70;;;;;;5016060;28;20068;-49
2022/08/23 07:57:27;;;;;;;3.10;1.60;;;24.10;42.50;;;;;;5016078;28;20053;-51
2022/08/23 07:59:55;;;;;;;3.75;1.73;;;24.10;42.30;;;;;;5014952;28;20088;-50
2022/08/23 08:02:22;;;;;;;5.75;1.98;;;24.20;42.30;;;;;;5019036;28;20062;-55
2022/08/23 08:04:49;;;;;;;3.13;1.77;;;24.20;42.30;;;;;;5024071;28;20054;-49
2022/08/23 08:07:17;;;;;;;8.30;3.28;;;24.20;42.20;;;;;;5017794;28;22009;-51
2022/08/23 08:09:44;;;;;;;5.20;2.60;;;24.40;42.30;;;;;;5018809;28;20076;-53
2022/08/23 08:12:11;;;;;;;3.45;1.90;;;24.40;42.10;;;;;;5012384;28;20046;-52
2022/08/23 08:14:40;;;;;;;3.38;1.67;;;24.50;41.80;;;;;;5020483;28;20049;-51
2022/08/23 08:17:07;;;;;;;5.53;2.08;;;24.50;42.00;;;;;;5014483;28;20053;-54
2022/08/23 08:19:35;;;;;;;4.80;1.73;;;24.60;41.60;;;;;;5022014;28;20053;-52
2022/08/23 08:22:02;;;;;;;3.80;2.10;;;24.70;41.40;;;;;;5020386;28;20045;-54
2022/08/23 08:24:29;;;;;;;9.80;2.30;;;24.70;41.50;;;;;;5018299;28;20057;-52
2022/08/23 08:26:56;;;;;;;8.23;2.50;;;24.80;41.50;;;;;;5017422;28;20442;-51
2022/08/23 08:29:24;;;;;;;3.88;1.80;;;24.80;41.00;;;;;;5020770;28;20060;-52
2022/08/23 08:31:52;;;;;;;4.05;2.05;;;24.90;41.00;;;;;;5014710;28;20050;-54
2022/08/23 08:34:20;;;;;;;4.57;2.22;;;24.90;40.90;;;;;;5020397;28;20065;-51
2022/08/23 08:36:50;;;;;;;4.65;2.40;;;25.00;40.80;;;;;;5016983;28;20057;-54
2022/08/23 08:39:20;;;;;;;12.32;2.72;;;25.00;40.70;;;;;;5020588;28;20060;-56
2022/08/23 08:41:56;;;;;;;4.60;2.50;;;25.10;40.70;;;;;;5017876;28;21140;-53
2022/08/23 08:44:34;;;;;;;16.23;2.97;;;25.10;40.40;;;;;;5023211;28;20062;-52
2022/08/23 08:47:08;;;;;;;9.30;2.97;;;25.20;39.90;;;;;;5016011;28;20057;-52
2022/08/23 08:49:42;;;;;;;7.22;2.83;;;25.30;39.90;;;;;;5016451;28;20540;-52
2022/08/23 08:52:14;;;;;;;;;;;25.30;39.50;;;;;;5009517;28;20054;-51
2022/08/23 08:54:43;;;;;;;7.10;2.78;;;25.40;39.50;;;;;;5011415;28;19922;-50
2022/08/23 08:57:15;;;;;;;6.53;2.58;;;25.50;39.40;;;;;;5015342;28;20053;-54
2022/08/23 08:59:50;;;;;;;7.25;3.08;;;25.50;39.00;;;;;;5012659;28;20524;-51
2022/08/23 09:02:21;;;;;;;5.20;2.22;;;25.60;38.70;;;;;;5008351;28;20045;-54
2022/08/23 09:04:49;;;;;;;7.00;2.60;;;25.70;39.10;;;;;;5012372;28;20053;-53
2022/08/23 09:07:23;;;;;;;5.50;2.42;;;25.80;38.10;;;;;;5015007;28;20057;-54
2022/08/23 09:10:09;;;;;;;12.52;2.90;;;25.80;38.00;;;;;;5012407;28;20059;-52
2022/08/23 09:12:50;;;;;;;7.22;2.30;;;26.00;37.80;;;;;;5010667;28;20528;-51
2022/08/23 09:15:29;;;;;;;4.68;1.75;;;26.00;38.30;;;;;;5016649;28;20513;-53
2022/08/23 09:18:05;;;;;;;6.05;1.95;;;26.10;38.20;;;;;;5020485;28;20060;-55
2022/08/23 09:20:34;;;;;;;11.80;2.97;;;26.20;38.40;;;;;;5013673;28;20056;-51
2022/08/23 09:23:07;;;;;;;4.40;2.40;;;26.30;37.80;;;;;;5017687;28;20061;-56
2022/08/23 09:25:35;;;;;;;9.70;2.75;;;26.40;37.90;;;;;;5019522;28;20057;-52
2022/08/23 09:28:03;;;;;;;7.03;2.58;;;26.40;37.80;;;;;;5020254;28;20497;-56
2022/08/23 09:30:49;;;;;;;4.40;2.17;;;26.50;37.70;;;;;;5011015;28;20451;-53
2022/08/23 09:33:20;;;;;;;6.38;2.83;;;26.60;37.70;;;;;;5015905;28;20058;-51
2022/08/23 09:36:06;;;;;;;10.68;2.67;;;26.70;37.10;;;;;;5020418;28;20061;-54
2022/08/23 09:38:34;;;;;;;6.88;2.80;;;26.70;37.40;;;;;;5021172;28;20057;-50
2022/08/23 09:41:01;;;;;;;7.82;3.22;;;26.80;37.20;;;;;;5010317;28;20060;-51
2022/08/23 09:43:30;;;;;;;11.48;3.40;;;26.90;37.10;;;;;;5022160;28;20060;-55
2022/08/23 09:46:01;;;;;;;9.38;2.70;;;27.00;36.90;;;;;;5021201;28;20413;-50
2022/08/23 09:48:37;;;;;;;10.23;2.15;;;27.00;36.30;;;;;;5022355;28;20057;-54
2022/08/23 09:51:11;;;;;;;8.95;2.63;;;27.10;37.00;;;;;;5012174;28;20409;-53
2022/08/23 09:53:38;;;;;;;5.93;2.53;;;27.20;37.20;;;;;;5012934;28;20053;-53
2022/08/23 09:56:15;;;;;;;7.75;2.67;;;27.20;37.00;;;;;;5018562;28;20069;-54
2022/08/23 09:58:45;;;;;;;5.32;2.20;;;27.30;36.80;;;;;;5013771;28;20049;-55
2022/08/23 10:01:18;;;;;;;5.82;1.98;;;27.40;37.10;;;;;;5004183;28;20064;-54
2022/08/23 10:03:47;;;;;;;5.97;2.25;;;27.40;36.90;;;;;;5015138;28;20057;-53
2022/08/23 10:06:29;;;;;;;5.95;2.20;;;27.50;36.80;;;;;;5020604;28;20064;-52
2022/08/23 10:09:03;;;;;;;6.55;2.38;;;27.50;36.80;;;;;;5016589;28;20053;-53
2022/08/23 10:11:34;;;;;;;3.65;2.05;;;27.60;36.70;;;;;;5016794;28;20049;-54
2022/08/23 10:14:01;;;;;;;7.13;2.25;;;27.60;36.70;;;;;;5021376;28;20840;-50
2022/08/23 10:16:36;;;;;;;5.70;2.40;;;27.60;36.50;;;;;;5015208;28;20053;-50
2022/08/23 10:19:12;;;;;;;5.40;2.50;;;27.70;36.50;;;;;;5014764;28;20068;-54
2022/08/23 10:21:41;;;;;;;6.97;2.72;;;27.70;36.40;;;;;;5018550;28;20069;-50
2022/08/23 10:24:19;;;;;;;9.93;2.65;;;27.80;35.70;;;;;;5019417;28;20060;-50
2022/08/23 10:29:35;;;;;;;7.25;2.65;;;27.80;35.10;;;;;;5016626;28;20057;-52
2022/08/23 10:29:51;;;;;;;4.82;2.17;;;27.90;35.60;;;;;;5017617;28;20069;-53
2022/08/23 10:32:23;;;;;;;6.60;2.53;;;27.90;35.50;;;;;;5017321;28;20056;-53
2022/08/23 10:35:03;;;;;;;9.60;2.53;;;28.00;35.80;;;;;;5020935;28;20072;-55
2022/08/23 10:37:57;;;;;;;5.95;2.10;;;28.00;35.40;;;;;;5015484;28;20061;-54
2022/08/23 10:40:29;;;;;;;9.20;2.97;;;28.00;35.60;;;;;;5019084;28;20057;-53
2022/08/23 10:43:13;;;;;;;5.90;2.15;;;28.10;35.40;;;;;;5020342;28;20057;-53
2022/08/23 10:45:43;;;;;;;9.73;2.45;;;28.20;35.30;;;;;;5006377;28;20409;-57
2022/08/23 10:48:26;;;;;;;6.22;2.25;;;28.20;35.50;;;;;;5006119;28;20057;-54
2022/08/23 10:50:57;;;;;;;5.82;1.90;;;28.30;35.00;;;;;;4999466;28;20523;-55
2022/08/23 10:53:35;;;;;;;7.75;2.38;;;28.30;34.60;;;;;;5010257;28;20053;-54
2022/08/23 10:56:03;;;;;;;5.10;2.30;;;28.30;34.70;;;;;;5016250;28;20422;-53
2022/08/23 10:58:37;;;;;;;4.57;1.92;;;28.40;34.70;;;;;;5009352;28;20249;-52
2022/08/23 11:01:06;;;;;;;;;;;28.40;34.60;;;;;;5013562;28;20060;-53
2022/08/23 11:03:37;;;;;;;6.40;2.45;;;28.50;34.40;;;;;;5017136;28;19921;-52
2022/08/23 11:06:27;;;;;;;5.60;2.30;;;28.50;33.50;;;;;;5014010;28;20516;-53
2022/08/23 11:09:00;;;;;;;5.90;2.17;;;28.60;32.90;;;;;;5014268;28;20405;-53
2022/08/23 11:11:42;;;;;;;4.35;2.08;;;28.60;33.30;;;;;;5000043;28;20061;-55
2022/08/23 11:14:12;;;;;;;10.60;2.03;;;28.70;33.80;;;;;;5011069;28;20132;-52
2022/08/23 11:16:45;;;;;;;5.15;2.13;;;28.80;33.70;;;;;;5011907;28;20512;-54
2022/08/23 11:19:14;;;;;;;5.32;2.17;;;28.80;33.80;;;;;;5021949;28;20053;-51
2022/08/23 11:21:47;;;;;;;3.97;2.30;;;28.80;33.60;;;;;;5015769;28;20053;-52
2022/08/23 11:24:53;;;;;;;5.13;2.08;;;28.90;33.40;;;;;;5019883;28;20060;-52
2022/08/23 11:27:39;;;;;;;4.35;1.92;;;28.90;33.50;;;;;;4979914;28;20546;-53
2022/08/23 11:30:45;;;;;;;5.43;2.20;;;29.00;33.70;;;;;;4968430;28;20054;-52
2022/08/23 11:33:21;;;;;;;4.18;2.10;;;29.10;32.90;;;;;;4965240;28;20482;-54
2022/08/23 11:35:51;;;;;;;4.07;1.90;;;29.10;33.20;;;;;;5006880;28;20053;-55
2022/08/23 11:38:58;;;;;;;3.83;1.98;;;29.20;33.40;;;;;;5014590;28;21279;-54
2022/08/23 11:41:27;;;;;;;4.65;2.00;;;29.20;33.70;;;;;;5013897;28;20497;-53
2022/08/23 11:44:23;;;;;;;4.90;1.98;;;29.30;32.90;;;;;;5019801;28;20054;-57
2022/08/23 11:47:03;;;;;;;5.82;2.08;;;29.30;32.90;;;;;;5015353;28;20057;-52
2022/08/23 11:50:15;;;;;;;3.20;2.20;;;29.40;33.20;;;;;;5007485;28;20387;-52
2022/08/23 11:53:07;;;;;;;5.32;2.08;;;29.50;32.00;;;;;;5006516;28;20060;-54
2022/08/23 11:56:00;;;;;;;5.05;1.95;;;29.50;32.80;;;;;;5008946;28;20580;-57
2022/08/23 11:58:45;;;;;;;14.32;3.05;;;29.50;32.50;;;;;;5014530;28;20054;-54
2022/08/23 12:01:14;;;;;;;9.40;2.40;;;29.60;31.10;;;;;;5009400;28;20065;-52
2022/08/23 12:03:55;;;;;;;7.57;2.05;;;29.60;31.50;;;;;;5020782;28;20665;-54
2022/08/23 12:06:41;;;;;;;6.35;2.35;;;29.70;32.10;;;;;;5019155;28;20505;-53
2022/08/23 12:09:35;;;;;;;5.20;2.10;;;29.80;32.00;;;;;;5019113;28;20449;-54
2022/08/23 12:12:12;;;;;;;10.68;2.30;;;29.80;32.10;;;;;;5009523;28;20531;-53
2022/08/23 12:14:52;;;;;;;8.15;2.38;;;29.80;32.20;;;;;;5009665;28;20061;-53
2022/08/23 12:18:11;;;;;;;3.40;2.00;;;29.90;31.60;;;;;;5011585;28;20050;-51
2022/08/23 12:20:40;;;;;;;7.40;1.92;;;29.90;31.90;;;;;;5010192;28;20413;-53
2022/08/23 12:23:20;;;;;;;3.67;1.70;;;30.00;32.10;;;;;;5020523;28;20348;-52
2022/08/23 12:25:59;;;;;;;4.57;2.17;;;30.00;31.70;;;;;;5019118;28;20076;-53
2022/08/23 12:28:38;;;;;;;5.75;2.05;;;30.00;31.50;;;;;;5012233;28;20095;-56
2022/08/23 12:31:22;;;;;;;6.60;2.50;;;30.10;31.30;;;;;;5009021;28;20049;-51
2022/08/23 12:34:02;;;;;;;7.05;2.17;;;30.20;31.40;;;;;;5019694;28;20053;-51
2022/08/23 12:36:38;;;;;;;4.25;1.98;;;30.20;30.90;;;;;;5013493;28;20058;-53
2022/08/23 12:39:19;;;;;;;4.40;2.20;;;30.20;30.80;;;;;;5014926;28;20057;-54
2022/08/23 12:41:55;;;;;;;3.80;1.70;;;30.30;30.90;;;;;;5018775;28;20057;-53
2022/08/23 12:44:25;;;;;;;9.10;1.80;;;30.30;30.70;;;;;;5021200;28;21096;-54
2022/08/23 12:46:53;;;;;;;4.95;1.95;;;30.40;30.70;;;;;;5012232;28;20057;-53
2022/08/23 12:49:26;;;;;;;3.80;1.60;;;30.40;30.90;;;;;;5024052;28;20049;-50
2022/08/23 12:51:57;;;;;;;4.13;1.88;;;30.50;31.20;;;;;;5018982;28;20068;-55
2022/08/23 12:54:36;;;;;;;2.63;1.83;;;30.50;30.90;;;;;;5019961;28;20061;-50
2022/08/23 12:57:10;;;;;;;4.60;2.00;;;30.60;30.60;;;;;;5023729;28;20065;-53
2022/08/23 12:59:43;;;;;;;7.75;2.00;;;30.60;30.70;;;;;;5017682;28;20390;-52
2022/08/23 13:02:16;;;;;;;4.55;1.88;;;30.70;30.60;;;;;;5014553;28;20053;-55
2022/08/23 13:04:43;;;;;;;7.43;2.20;;;30.70;30.30;;;;;;5023907;28;20056;-56
2022/08/23 13:07:18;;;;;;;10.95;1.98;;;30.70;30.40;;;;;;5022515;28;20440;-51
2022/08/23 13:09:46;;;;;;;5.32;2.05;;;30.80;30.40;;;;;;5017793;28;20053;-53
2022/08/23 13:12:14;;;;;;;2.88;1.52;;;30.80;30.40;;;;;;5021445;28;20425;-55
2022/08/23 13:14:46;;;;;;;3.75;1.75;;;30.90;30.10;;;;;;5021230;28;20056;-53